sensor_id;sensor_type;location;lat;lon;timestamp;temperature;humidity
35497;DHT22;21609;49.298;6.844;2023-04-25T00:02:15;18.80;51.50
35497;DHT22;21609;49.298;6.844;2023-04-25T00:04:41;18.80;51.50
35497;DHT22;21609;49.298;6.844;2023-04-25T00:07:07;18.80;51.50
35497;DHT22;21609;49.298;6.844;2023-04-25T00:09:32;18.80;51.50
35497;DHT22;21609;49.298;6.844;2023-04-25T00:11:58;18.80;51.50
35497;DHT22;21609;49.298;6.844;2023-04-25T00:14:24;18.80;51.50
35497;DHT22;21609;49.298;6.844;2023-04-25T00:16:49;18.70;51.50
35497;DHT22;21609;49.298;6.844;2023-04-25T00:19:17;18.80;51.50
35497;DHT22;21609;49.298;6.844;2023-04-25T00:21:42;18.80;51.50
35497;DHT22;21609;49.298;6.844;2023-04-25T00:24:11;18.80;51.50
35497;DHT22;21609;49.298;6.844;2023-04-25T00:26:37;18.70;51.50
35497;DHT22;21609;49.298;6.844;2023-04-25T00:29:03;18.70;51.60
35497;DHT22;21609;49.298;6.844;2023-04-25T00:31:28;18.70;51.50
35497;DHT22;21609;49.298;6.844;2023-04-25T00:33:54;18.70;51.50
35497;DHT22;21609;49.298;6.844;2023-04-25T00:36:20;18.70;51.60
35497;DHT22;21609;49.298;6.844;2023-04-25T00:38:46;18.70;51.60
35497;DHT22;21609;49.298;6.844;2023-04-25T00:41:14;18.70;51.60
35497;DHT22;21609;49.298;6.844;2023-04-25T00:43:41;18.70;51.60
35497;DHT22;21609;49.298;6.844;2023-04-25T00:46:07;18.60;51.60
35497;DHT22;21609;49.298;6.844;2023-04-25T00:48:32;18.60;51.60
35497;DHT22;21609;49.298;6.844;2023-04-25T00:50:58;18.60;51.60
35497;DHT22;21609;49.298;6.844;2023-04-25T00:53:26;18.60;51.60
35497;DHT22;21609;49.298;6.844;2023-04-25T00:55:53;18.60;51.60
35497;DHT22;21609;49.298;6.844;2023-04-25T00:58:20;18.60;51.70
35497;DHT22;21609;49.298;6.844;2023-04-25T01:00:47;18.60;51.60
35497;DHT22;21609;49.298;6.844;2023-04-25T01:03:13;18.60;51.70
35497;DHT22;21609;49.298;6.844;2023-04-25T01:05:42;18.60;51.70
35497;DHT22;21609;49.298;6.844;2023-04-25T01:08:08;18.60;51.70
35497;DHT22;21609;49.298;6.844;2023-04-25T01:10:33;18.50;51.70
35497;DHT22;21609;49.298;6.844;2023-04-25T01:12:59;18.50;51.70
35497;DHT22;21609;49.298;6.844;2023-04-25T01:15:25;18.50;51.70
35497;DHT22;21609;49.298;6.844;2023-04-25T01:17:51;18.50;51.70
35497;DHT22;21609;49.298;6.844;2023-04-25T01:20:16;18.50;51.70
35497;DHT22;21609;49.298;6.844;2023-04-25T01:22:43;18.50;51.70
35497;DHT22;21609;49.298;6.844;2023-04-25T01:25:09;18.50;51.70
35497;DHT22;21609;49.298;6.844;2023-04-25T01:27:36;18.50;51.70
35497;DHT22;21609;49.298;6.844;2023-04-25T01:30:03;18.50;51.80
35497;DHT22;21609;49.298;6.844;2023-04-25T01:32:29;18.50;51.70
35497;DHT22;21609;49.298;6.844;2023-04-25T01:35:07;18.50;51.80
35497;DHT22;21609;49.298;6.844;2023-04-25T01:37:36;18.50;51.80
35497;DHT22;21609;49.298;6.844;2023-04-25T01:40:02;18.50;51.80
35497;DHT22;21609;49.298;6.844;2023-04-25T01:42:31;18.40;51.70
35497;DHT22;21609;49.298;6.844;2023-04-25T01:44:57;18.40;51.70
35497;DHT22;21609;49.298;6.844;2023-04-25T01:47:22;18.40;51.80
35497;DHT22;21609;49.298;6.844;2023-04-25T01:49:48;18.40;51.80
35497;DHT22;21609;49.298;6.844;2023-04-25T01:52:14;18.40;51.80
35497;DHT22;21609;49.298;6.844;2023-04-25T01:54:40;18.40;52.40
35497;DHT22;21609;49.298;6.844;2023-04-25T01:57:09;18.30;51.70
35497;DHT22;21609;49.298;6.844;2023-04-25T01:59:36;18.40;51.80
35497;DHT22;21609;49.298;6.844;2023-04-25T02:02:01;18.40;51.80
35497;DHT22;21609;49.298;6.844;2023-04-25T02:04:29;18.40;51.80
35497;DHT22;21609;49.298;6.844;2023-04-25T02:06:55;18.30;51.80
35497;DHT22;21609;49.298;6.844;2023-04-25T02:09:20;18.40;51.90
35497;DHT22;21609;49.298;6.844;2023-04-25T02:11:46;18.30;51.90
35497;DHT22;21609;49.298;6.844;2023-04-25T02:14:11;18.30;51.90
35497;DHT22;21609;49.298;6.844;2023-04-25T02:16:37;18.30;51.80
35497;DHT22;21609;49.298;6.844;2023-04-25T02:19:03;18.30;51.90
35497;DHT22;21609;49.298;6.844;2023-04-25T02:21:30;18.30;51.90
35497;DHT22;21609;49.298;6.844;2023-04-25T02:23:56;18.30;51.90
35497;DHT22;21609;49.298;6.844;2023-04-25T02:26:21;18.30;51.90
35497;DHT22;21609;49.298;6.844;2023-04-25T02:28:49;18.30;51.90
35497;DHT22;21609;49.298;6.844;2023-04-25T02:31:15;18.30;51.90
35497;DHT22;21609;49.298;6.844;2023-04-25T02:33:41;18.30;51.90
35497;DHT22;21609;49.298;6.844;2023-04-25T02:36:07;18.30;51.90
35497;DHT22;21609;49.298;6.844;2023-04-25T02:38:32;18.30;51.90
35497;DHT22;21609;49.298;6.844;2023-04-25T02:40:58;18.20;51.90
35497;DHT22;21609;49.298;6.844;2023-04-25T02:43:24;18.20;51.90
35497;DHT22;21609;49.298;6.844;2023-04-25T02:45:49;18.20;51.90
35497;DHT22;21609;49.298;6.844;2023-04-25T02:48:15;18.20;51.90
35497;DHT22;21609;49.298;6.844;2023-04-25T02:50:40;18.20;51.90
35497;DHT22;21609;49.298;6.844;2023-04-25T02:53:06;18.20;51.90
35497;DHT22;21609;49.298;6.844;2023-04-25T02:55:31;18.20;51.90
35497;DHT22;21609;49.298;6.844;2023-04-25T02:57:57;18.20;51.90
35497;DHT22;21609;49.298;6.844;2023-04-25T03:00:22;18.20;51.90
35497;DHT22;21609;49.298;6.844;2023-04-25T03:02:48;18.20;51.90
35497;DHT22;21609;49.298;6.844;2023-04-25T03:05:14;18.10;51.90
35497;DHT22;21609;49.298;6.844;2023-04-25T03:07:39;18.10;51.90
35497;DHT22;21609;49.298;6.844;2023-04-25T03:10:08;18.20;52.00
35497;DHT22;21609;49.298;6.844;2023-04-25T03:12:34;18.10;51.90
35497;DHT22;21609;49.298;6.844;2023-04-25T03:14:59;18.20;52.00
35497;DHT22;21609;49.298;6.844;2023-04-25T03:17:25;18.10;51.90
35497;DHT22;21609;49.298;6.844;2023-04-25T03:19:50;18.10;51.90
35497;DHT22;21609;49.298;6.844;2023-04-25T03:22:16;18.10;52.00
35497;DHT22;21609;49.298;6.844;2023-04-25T03:24:41;18.10;51.90
35497;DHT22;21609;49.298;6.844;2023-04-25T03:27:07;18.10;52.00
35497;DHT22;21609;49.298;6.844;2023-04-25T03:29:33;18.10;52.00
35497;DHT22;21609;49.298;6.844;2023-04-25T03:32:01;18.10;52.00
35497;DHT22;21609;49.298;6.844;2023-04-25T03:34:27;18.10;52.00
35497;DHT22;21609;49.298;6.844;2023-04-25T03:36:53;18.10;52.00
35497;DHT22;21609;49.298;6.844;2023-04-25T03:39:18;18.00;52.00
35497;DHT22;21609;49.298;6.844;2023-04-25T03:41:44;18.00;52.00
35497;DHT22;21609;49.298;6.844;2023-04-25T03:44:10;18.10;52.00
35497;DHT22;21609;49.298;6.844;2023-04-25T03:46:35;18.00;52.00
35497;DHT22;21609;49.298;6.844;2023-04-25T03:49:01;18.00;52.00
35497;DHT22;21609;49.298;6.844;2023-04-25T03:51:26;18.00;52.00
35497;DHT22;21609;49.298;6.844;2023-04-25T03:53:52;18.00;52.00
35497;DHT22;21609;49.298;6.844;2023-04-25T03:56:18;18.00;52.00
35497;DHT22;21609;49.298;6.844;2023-04-25T03:58:44;18.00;52.00
35497;DHT22;21609;49.298;6.844;2023-04-25T04:01:09;18.00;52.00
35497;DHT22;21609;49.298;6.844;2023-04-25T04:03:36;18.00;52.00
35497;DHT22;21609;49.298;6.844;2023-04-25T04:06:03;18.00;52.10
35497;DHT22;21609;49.298;6.844;2023-04-25T04:08:29;18.00;52.00
35497;DHT22;21609;49.298;6.844;2023-04-25T04:10:56;18.00;52.10
35497;DHT22;21609;49.298;6.844;2023-04-25T04:13:22;18.00;52.10
35497;DHT22;21609;49.298;6.844;2023-04-25T04:15:47;17.90;52.00
35497;DHT22;21609;49.298;6.844;2023-04-25T04:18:13;17.90;52.10
35497;DHT22;21609;49.298;6.844;2023-04-25T04:20:39;17.90;52.00
35497;DHT22;21609;49.298;6.844;2023-04-25T04:23:04;17.90;52.00
35497;DHT22;21609;49.298;6.844;2023-04-25T04:25:30;17.90;52.00
35497;DHT22;21609;49.298;6.844;2023-04-25T04:27:56;17.90;52.10
35497;DHT22;21609;49.298;6.844;2023-04-25T04:30:23;17.90;52.10
35497;DHT22;21609;49.298;6.844;2023-04-25T04:32:58;17.90;52.10
35497;DHT22;21609;49.298;6.844;2023-04-25T04:35:24;17.90;52.10
35497;DHT22;21609;49.298;6.844;2023-04-25T04:37:50;17.90;52.10
35497;DHT22;21609;49.298;6.844;2023-04-25T04:40:16;17.90;52.10
35497;DHT22;21609;49.298;6.844;2023-04-25T04:42:43;17.90;52.10
35497;DHT22;21609;49.298;6.844;2023-04-25T04:45:11;17.90;52.10
35497;DHT22;21609;49.298;6.844;2023-04-25T04:47:37;17.90;52.10
35497;DHT22;21609;49.298;6.844;2023-04-25T04:50:05;17.90;52.10
35497;DHT22;21609;49.298;6.844;2023-04-25T04:52:34;17.90;52.20
35497;DHT22;21609;49.298;6.844;2023-04-25T04:55:00;17.90;52.20
35497;DHT22;21609;49.298;6.844;2023-04-25T04:57:25;17.90;52.10
35497;DHT22;21609;49.298;6.844;2023-04-25T04:59:51;17.80;52.10
35497;DHT22;21609;49.298;6.844;2023-04-25T05:02:17;17.80;52.10
35497;DHT22;21609;49.298;6.844;2023-04-25T05:04:43;17.80;52.20
35497;DHT22;21609;49.298;6.844;2023-04-25T05:07:08;17.80;52.10
35497;DHT22;21609;49.298;6.844;2023-04-25T05:09:34;17.80;52.20
35497;DHT22;21609;49.298;6.844;2023-04-25T05:11:59;17.80;52.20
35497;DHT22;21609;49.298;6.844;2023-04-25T05:14:26;17.80;52.20
35497;DHT22;21609;49.298;6.844;2023-04-25T05:16:51;17.80;52.40
35497;DHT22;21609;49.298;6.844;2023-04-25T05:19:17;17.80;52.50
35497;DHT22;21609;49.298;6.844;2023-04-25T05:21:43;17.80;52.90
35497;DHT22;21609;49.298;6.844;2023-04-25T05:24:09;17.80;53.00
35497;DHT22;21609;49.298;6.844;2023-04-25T05:26:34;17.80;52.90
35497;DHT22;21609;49.298;6.844;2023-04-25T05:29:00;17.80;53.20
35497;DHT22;21609;49.298;6.844;2023-04-25T05:31:26;17.80;52.80
35497;DHT22;21609;49.298;6.844;2023-04-25T05:33:51;17.80;53.00
35497;DHT22;21609;49.298;6.844;2023-04-25T05:36:18;17.80;52.70
35497;DHT22;21609;49.298;6.844;2023-04-25T05:38:44;17.80;53.20
35497;DHT22;21609;49.298;6.844;2023-04-25T05:41:10;17.80;53.20
35497;DHT22;21609;49.298;6.844;2023-04-25T05:43:35;17.80;53.10
35497;DHT22;21609;49.298;6.844;2023-04-25T05:46:01;17.80;53.00
35497;DHT22;21609;49.298;6.844;2023-04-25T05:48:27;17.80;53.10
35497;DHT22;21609;49.298;6.844;2023-04-25T05:50:52;17.80;53.00
35497;DHT22;21609;49.298;6.844;2023-04-25T05:53:19;17.70;52.90
35497;DHT22;21609;49.298;6.844;2023-04-25T05:55:45;17.70;52.90
35497;DHT22;21609;49.298;6.844;2023-04-25T05:58:10;17.70;52.90
35497;DHT22;21609;49.298;6.844;2023-04-25T06:00:36;17.70;52.90
35497;DHT22;21609;49.298;6.844;2023-04-25T06:03:01;17.70;52.90
35497;DHT22;21609;49.298;6.844;2023-04-25T06:05:27;17.70;52.80
35497;DHT22;21609;49.298;6.844;2023-04-25T06:07:53;17.70;52.90
35497;DHT22;21609;49.298;6.844;2023-04-25T06:10:18;17.70;52.80
35497;DHT22;21609;49.298;6.844;2023-04-25T06:12:44;17.70;52.80
35497;DHT22;21609;49.298;6.844;2023-04-25T06:15:10;17.70;52.80
35497;DHT22;21609;49.298;6.844;2023-04-25T06:17:36;17.70;52.70
35497;DHT22;21609;49.298;6.844;2023-04-25T06:20:02;17.60;52.70
35497;DHT22;21609;49.298;6.844;2023-04-25T06:22:28;17.70;52.70
35497;DHT22;21609;49.298;6.844;2023-04-25T06:24:54;17.70;52.80
35497;DHT22;21609;49.298;6.844;2023-04-25T06:27:22;17.70;52.70
35497;DHT22;21609;49.298;6.844;2023-04-25T06:29:48;17.70;52.70
35497;DHT22;21609;49.298;6.844;2023-04-25T06:32:13;17.70;52.80
35497;DHT22;21609;49.298;6.844;2023-04-25T06:34:39;17.70;52.80
35497;DHT22;21609;49.298;6.844;2023-04-25T06:37:05;17.70;52.70
35497;DHT22;21609;49.298;6.844;2023-04-25T06:39:30;17.70;52.70
35497;DHT22;21609;49.298;6.844;2023-04-25T06:41:56;17.60;52.60
35497;DHT22;21609;49.298;6.844;2023-04-25T06:44:21;17.60;52.70
35497;DHT22;21609;49.298;6.844;2023-04-25T06:46:49;17.60;52.60
35497;DHT22;21609;49.298;6.844;2023-04-25T06:49:15;17.70;52.70
35497;DHT22;21609;49.298;6.844;2023-04-25T06:51:41;17.60;52.70
35497;DHT22;21609;49.298;6.844;2023-04-25T06:54:06;17.60;52.80
35497;DHT22;21609;49.298;6.844;2023-04-25T06:56:32;17.60;52.80
35497;DHT22;21609;49.298;6.844;2023-04-25T06:58:57;17.60;52.80
35497;DHT22;21609;49.298;6.844;2023-04-25T07:01:23;17.60;52.80
35497;DHT22;21609;49.298;6.844;2023-04-25T07:03:49;17.60;52.70
35497;DHT22;21609;49.298;6.844;2023-04-25T07:06:15;17.60;52.70
35497;DHT22;21609;49.298;6.844;2023-04-25T07:08:40;17.60;52.70
35497;DHT22;21609;49.298;6.844;2023-04-25T07:11:06;17.60;52.70
35497;DHT22;21609;49.298;6.844;2023-04-25T07:13:31;17.60;52.70
35497;DHT22;21609;49.298;6.844;2023-04-25T07:15:57;17.60;52.70
35497;DHT22;21609;49.298;6.844;2023-04-25T07:18:24;17.60;52.70
35497;DHT22;21609;49.298;6.844;2023-04-25T07:20:49;17.60;52.70
35497;DHT22;21609;49.298;6.844;2023-04-25T07:23:15;17.60;52.70
35497;DHT22;21609;49.298;6.844;2023-04-25T07:25:40;17.50;52.60
35497;DHT22;21609;49.298;6.844;2023-04-25T07:28:06;17.80;52.70
35497;DHT22;21609;49.298;6.844;2023-04-25T07:30:31;18.10;52.30
35497;DHT22;21609;49.298;6.844;2023-04-25T07:32:57;18.40;52.10
35497;DHT22;21609;49.298;6.844;2023-04-25T07:35:22;18.50;51.90
35497;DHT22;21609;49.298;6.844;2023-04-25T07:37:48;18.50;52.20
35497;DHT22;21609;49.298;6.844;2023-04-25T07:40:13;18.50;52.20
35497;DHT22;21609;49.298;6.844;2023-04-25T07:42:41;18.30;52.50
35497;DHT22;21609;49.298;6.844;2023-04-25T07:45:07;18.20;52.90
35497;DHT22;21609;49.298;6.844;2023-04-25T07:47:35;18.10;53.20
35497;DHT22;21609;49.298;6.844;2023-04-25T07:50:01;18.10;53.40
35497;DHT22;21609;49.298;6.844;2023-04-25T07:52:26;18.00;53.40
35497;DHT22;21609;49.298;6.844;2023-04-25T07:54:52;18.00;53.50
35497;DHT22;21609;49.298;6.844;2023-04-25T07:57:18;18.00;53.50
35497;DHT22;21609;49.298;6.844;2023-04-25T07:59:44;18.00;53.60
35497;DHT22;21609;49.298;6.844;2023-04-25T08:02:10;17.90;53.70
35497;DHT22;21609;49.298;6.844;2023-04-25T08:04:36;17.90;53.50
35497;DHT22;21609;49.298;6.844;2023-04-25T08:07:01;18.00;53.60
35497;DHT22;21609;49.298;6.844;2023-04-25T08:09:27;17.90;53.60
35497;DHT22;21609;49.298;6.844;2023-04-25T08:11:52;17.90;53.70
35497;DHT22;21609;49.298;6.844;2023-04-25T08:14:18;17.90;54.10
35497;DHT22;21609;49.298;6.844;2023-04-25T08:16:44;17.90;54.50
35497;DHT22;21609;49.298;6.844;2023-04-25T08:19:10;17.90;54.60
35497;DHT22;21609;49.298;6.844;2023-04-25T08:21:36;17.90;54.70
35497;DHT22;21609;49.298;6.844;2023-04-25T08:24:02;17.80;54.10
35497;DHT22;21609;49.298;6.844;2023-04-25T08:26:28;17.80;54.60
35497;DHT22;21609;49.298;6.844;2023-04-25T08:28:54;17.80;54.70
35497;DHT22;21609;49.298;6.844;2023-04-25T08:31:20;17.90;54.70
35497;DHT22;21609;49.298;6.844;2023-04-25T08:33:46;17.90;54.70
35497;DHT22;21609;49.298;6.844;2023-04-25T08:36:11;17.90;54.50
35497;DHT22;21609;49.298;6.844;2023-04-25T08:38:37;17.80;54.60
35497;DHT22;21609;49.298;6.844;2023-04-25T08:41:03;17.90;54.70
35497;DHT22;21609;49.298;6.844;2023-04-25T08:43:30;17.90;54.90
35497;DHT22;21609;49.298;6.844;2023-04-25T08:46:00;17.90;55.20
35497;DHT22;21609;49.298;6.844;2023-04-25T08:48:27;17.90;55.50
35497;DHT22;21609;49.298;6.844;2023-04-25T08:50:56;17.90;56.40
35497;DHT22;21609;49.298;6.844;2023-04-25T08:53:28;17.90;55.50
35497;DHT22;21609;49.298;6.844;2023-04-25T08:55:56;17.90;55.40
35497;DHT22;21609;49.298;6.844;2023-04-25T08:58:23;17.90;55.70
35497;DHT22;21609;49.298;6.844;2023-04-25T09:00:50;18.00;55.70
35497;DHT22;21609;49.298;6.844;2023-04-25T09:03:17;18.00;55.30
35497;DHT22;21609;49.298;6.844;2023-04-25T09:05:43;18.00;55.40
35497;DHT22;21609;49.298;6.844;2023-04-25T09:08:08;18.00;55.50
35497;DHT22;21609;49.298;6.844;2023-04-25T09:10:35;18.10;56.20
35497;DHT22;21609;49.298;6.844;2023-04-25T09:13:05;18.10;56.60
35497;DHT22;21609;49.298;6.844;2023-04-25T09:15:31;17.90;56.00
35497;DHT22;21609;49.298;6.844;2023-04-25T09:17:57;17.80;55.30
35497;DHT22;21609;49.298;6.844;2023-04-25T09:20:23;17.70;55.90
35497;DHT22;21609;49.298;6.844;2023-04-25T09:23:01;17.70;55.60
35497;DHT22;21609;49.298;6.844;2023-04-25T09:25:37;17.80;55.80
35497;DHT22;21609;49.298;6.844;2023-04-25T09:28:06;17.80;55.70
35497;DHT22;21609;49.298;6.844;2023-04-25T09:30:34;17.70;55.20
35497;DHT22;21609;49.298;6.844;2023-04-25T09:33:11;17.70;55.10
35497;DHT22;21609;49.298;6.844;2023-04-25T09:35:40;17.70;55.10
35497;DHT22;21609;49.298;6.844;2023-04-25T09:38:10;17.60;55.10
35497;DHT22;21609;49.298;6.844;2023-04-25T09:40:40;17.70;55.00
35497;DHT22;21609;49.298;6.844;2023-04-25T09:43:22;17.70;55.10
35497;DHT22;21609;49.298;6.844;2023-04-25T09:45:48;17.70;54.90
35497;DHT22;21609;49.298;6.844;2023-04-25T09:48:21;17.70;54.80
35497;DHT22;21609;49.298;6.844;2023-04-25T09:51:06;17.70;54.80
35497;DHT22;21609;49.298;6.844;2023-04-25T09:53:40;17.70;54.70
35497;DHT22;21609;49.298;6.844;2023-04-25T09:56:07;17.70;54.50
35497;DHT22;21609;49.298;6.844;2023-04-25T09:58:34;17.70;54.60
35497;DHT22;21609;49.298;6.844;2023-04-25T10:01:01;17.70;54.50
35497;DHT22;21609;49.298;6.844;2023-04-25T10:03:30;17.80;54.60
35497;DHT22;21609;49.298;6.844;2023-04-25T10:05:59;17.80;54.50
35497;DHT22;21609;49.298;6.844;2023-04-25T10:08:31;17.90;54.50
35497;DHT22;21609;49.298;6.844;2023-04-25T10:10:59;17.90;54.60
35497;DHT22;21609;49.298;6.844;2023-04-25T10:13:26;17.90;54.50
35497;DHT22;21609;49.298;6.844;2023-04-25T10:15:53;18.00;54.50
35497;DHT22;21609;49.298;6.844;2023-04-25T10:18:19;18.00;54.40
35497;DHT22;21609;49.298;6.844;2023-04-25T10:20:45;18.10;54.30
35497;DHT22;21609;49.298;6.844;2023-04-25T10:23:14;18.10;54.20
35497;DHT22;21609;49.298;6.844;2023-04-25T10:25:41;18.20;54.20
35497;DHT22;21609;49.298;6.844;2023-04-25T10:28:07;18.20;54.10
35497;DHT22;21609;49.298;6.844;2023-04-25T10:30:33;18.30;54.20
35497;DHT22;21609;49.298;6.844;2023-04-25T10:32:59;18.30;54.00
35497;DHT22;21609;49.298;6.844;2023-04-25T10:35:29;18.40;54.90
35497;DHT22;21609;49.298;6.844;2023-04-25T10:38:08;18.40;54.40
35497;DHT22;21609;49.298;6.844;2023-04-25T10:40:34;18.40;54.20
35497;DHT22;21609;49.298;6.844;2023-04-25T10:46:02;18.50;54.20
35497;DHT22;21609;49.298;6.844;2023-04-25T10:48:29;18.40;54.10
35497;DHT22;21609;49.298;6.844;2023-04-25T10:51:08;18.50;54.10
35497;DHT22;21609;49.298;6.844;2023-04-25T10:53:34;18.50;54.00
35497;DHT22;21609;49.298;6.844;2023-04-25T10:56:00;18.60;53.90
35497;DHT22;21609;49.298;6.844;2023-04-25T10:58:26;18.60;54.20
35497;DHT22;21609;49.298;6.844;2023-04-25T11:00:52;18.60;55.10
35497;DHT22;21609;49.298;6.844;2023-04-25T11:03:21;18.60;55.10
35497;DHT22;21609;49.298;6.844;2023-04-25T11:05:48;18.60;54.60
35497;DHT22;21609;49.298;6.844;2023-04-25T11:08:18;18.50;54.90
35497;DHT22;21609;49.298;6.844;2023-04-25T11:10:50;18.50;54.80
35497;DHT22;21609;49.298;6.844;2023-04-25T11:13:15;18.50;54.60
35497;DHT22;21609;49.298;6.844;2023-04-25T11:15:42;18.50;54.50
35497;DHT22;21609;49.298;6.844;2023-04-25T11:18:07;18.50;54.50
35497;DHT22;21609;49.298;6.844;2023-04-25T11:20:33;18.50;54.40
35497;DHT22;21609;49.298;6.844;2023-04-25T11:22:58;18.50;54.30
35497;DHT22;21609;49.298;6.844;2023-04-25T11:25:25;18.50;54.30
35497;DHT22;21609;49.298;6.844;2023-04-25T11:27:55;18.50;54.20
35497;DHT22;21609;49.298;6.844;2023-04-25T11:30:23;18.50;54.10
35497;DHT22;21609;49.298;6.844;2023-04-25T11:32:49;18.50;54.10
35497;DHT22;21609;49.298;6.844;2023-04-25T11:35:15;18.50;54.10
35497;DHT22;21609;49.298;6.844;2023-04-25T11:37:43;18.60;54.10
35497;DHT22;21609;49.298;6.844;2023-04-25T11:40:09;18.50;54.00
35497;DHT22;21609;49.298;6.844;2023-04-25T11:42:39;18.50;53.90
35497;DHT22;21609;49.298;6.844;2023-04-25T11:45:06;18.60;54.00
35497;DHT22;21609;49.298;6.844;2023-04-25T11:47:32;18.60;53.90
35497;DHT22;21609;49.298;6.844;2023-04-25T11:50:03;18.60;53.90
35497;DHT22;21609;49.298;6.844;2023-04-25T11:52:39;18.60;53.80
35497;DHT22;21609;49.298;6.844;2023-04-25T11:55:07;18.70;53.80
35497;DHT22;21609;49.298;6.844;2023-04-25T11:57:33;18.70;53.70
35497;DHT22;21609;49.298;6.844;2023-04-25T12:00:25;18.70;53.70
35497;DHT22;21609;49.298;6.844;2023-04-25T12:02:52;18.70;53.70
35497;DHT22;21609;49.298;6.844;2023-04-25T12:05:19;18.70;53.60
35497;DHT22;21609;49.298;6.844;2023-04-25T12:07:46;18.70;53.60
35497;DHT22;21609;49.298;6.844;2023-04-25T12:10:14;18.70;53.50
35497;DHT22;21609;49.298;6.844;2023-04-25T12:12:43;18.70;53.60
35497;DHT22;21609;49.298;6.844;2023-04-25T12:17:39;18.70;53.60
35497;DHT22;21609;49.298;6.844;2023-04-25T12:20:17;18.70;53.70
35497;DHT22;21609;49.298;6.844;2023-04-25T12:22:45;18.70;53.60
35497;DHT22;21609;49.298;6.844;2023-04-25T12:25:56;18.70;53.60
35497;DHT22;21609;49.298;6.844;2023-04-25T12:28:13;18.70;53.50
35497;DHT22;21609;49.298;6.844;2023-04-25T12:33:30;18.70;53.60
35497;DHT22;21609;49.298;6.844;2023-04-25T12:35:56;18.60;53.20
35497;DHT22;21609;49.298;6.844;2023-04-25T12:38:28;18.60;53.50
35497;DHT22;21609;49.298;6.844;2023-04-25T12:40:56;18.60;53.50
35497;DHT22;21609;49.298;6.844;2023-04-25T12:43:21;18.60;53.40
35497;DHT22;21609;49.298;6.844;2023-04-25T12:45:54;18.70;53.40
35497;DHT22;21609;49.298;6.844;2023-04-25T12:48:20;18.70;53.40
35497;DHT22;21609;49.298;6.844;2023-04-25T12:50:46;18.80;53.30
35497;DHT22;21609;49.298;6.844;2023-04-25T12:53:20;18.80;53.30
35497;DHT22;21609;49.298;6.844;2023-04-25T12:55:46;18.80;53.30
35497;DHT22;21609;49.298;6.844;2023-04-25T12:58:12;18.80;53.20
35497;DHT22;21609;49.298;6.844;2023-04-25T13:00:38;18.80;53.30
35497;DHT22;21609;49.298;6.844;2023-04-25T13:03:04;18.80;53.20
35497;DHT22;21609;49.298;6.844;2023-04-25T13:05:30;18.80;53.20
35497;DHT22;21609;49.298;6.844;2023-04-25T13:07:56;18.70;53.20
35497;DHT22;21609;49.298;6.844;2023-04-25T13:10:22;18.80;53.30
35497;DHT22;21609;49.298;6.844;2023-04-25T13:12:47;18.70;53.30
35497;DHT22;21609;49.298;6.844;2023-04-25T13:15:13;18.60;53.30
35497;DHT22;21609;49.298;6.844;2023-04-25T13:17:41;18.60;53.30
35497;DHT22;21609;49.298;6.844;2023-04-25T13:20:07;18.70;53.30
35497;DHT22;21609;49.298;6.844;2023-04-25T13:22:34;18.80;53.30
35497;DHT22;21609;49.298;6.844;2023-04-25T13:25:02;18.80;53.20
35497;DHT22;21609;49.298;6.844;2023-04-25T13:27:28;18.80;53.30
35497;DHT22;21609;49.298;6.844;2023-04-25T13:29:54;18.80;53.30
35497;DHT22;21609;49.298;6.844;2023-04-25T13:32:20;18.80;53.30
35497;DHT22;21609;49.298;6.844;2023-04-25T13:34:45;18.90;53.30
35497;DHT22;21609;49.298;6.844;2023-04-25T13:37:11;19.00;53.40
35497;DHT22;21609;49.298;6.844;2023-04-25T13:39:36;19.00;53.20
35497;DHT22;21609;49.298;6.844;2023-04-25T13:42:02;19.00;53.20
35497;DHT22;21609;49.298;6.844;2023-04-25T13:44:28;19.00;53.20
35497;DHT22;21609;49.298;6.844;2023-04-25T13:46:53;19.00;53.20
35497;DHT22;21609;49.298;6.844;2023-04-25T13:49:19;19.00;53.30
35497;DHT22;21609;49.298;6.844;2023-04-25T13:51:45;18.90;53.10
35497;DHT22;21609;49.298;6.844;2023-04-25T13:54:10;18.90;52.90
35497;DHT22;21609;49.298;6.844;2023-04-25T13:56:36;18.90;53.00
35497;DHT22;21609;49.298;6.844;2023-04-25T13:59:02;18.90;53.00
35497;DHT22;21609;49.298;6.844;2023-04-25T14:01:28;19.00;53.00
35497;DHT22;21609;49.298;6.844;2023-04-25T14:03:55;19.00;53.00
35497;DHT22;21609;49.298;6.844;2023-04-25T14:06:21;19.00;53.00
35497;DHT22;21609;49.298;6.844;2023-04-25T14:08:50;19.00;52.90
35497;DHT22;21609;49.298;6.844;2023-04-25T14:11:15;19.10;53.10
35497;DHT22;21609;49.298;6.844;2023-04-25T14:13:43;19.10;53.10
35497;DHT22;21609;49.298;6.844;2023-04-25T14:16:09;19.20;52.80
35497;DHT22;21609;49.298;6.844;2023-04-25T14:18:34;19.20;52.70
35497;DHT22;21609;49.298;6.844;2023-04-25T14:21:00;19.20;52.60
35497;DHT22;21609;49.298;6.844;2023-04-25T14:23:26;19.10;52.60
35497;DHT22;21609;49.298;6.844;2023-04-25T14:25:51;19.10;52.70
35497;DHT22;21609;49.298;6.844;2023-04-25T14:28:17;19.10;52.70
35497;DHT22;21609;49.298;6.844;2023-04-25T14:30:43;19.10;52.80
35497;DHT22;21609;49.298;6.844;2023-04-25T14:33:08;19.10;52.80
35497;DHT22;21609;49.298;6.844;2023-04-25T14:35:35;19.10;52.80
35497;DHT22;21609;49.298;6.844;2023-04-25T14:38:00;19.10;52.70
35497;DHT22;21609;49.298;6.844;2023-04-25T14:40:26;19.00;52.70
35497;DHT22;21609;49.298;6.844;2023-04-25T14:42:52;19.10;52.70
35497;DHT22;21609;49.298;6.844;2023-04-25T14:45:17;19.00;52.60
35497;DHT22;21609;49.298;6.844;2023-04-25T14:47:43;19.00;52.60
35497;DHT22;21609;49.298;6.844;2023-04-25T14:50:09;19.00;52.60
35497;DHT22;21609;49.298;6.844;2023-04-25T14:52:35;19.00;52.60
35497;DHT22;21609;49.298;6.844;2023-04-25T14:55:01;19.00;52.60
35497;DHT22;21609;49.298;6.844;2023-04-25T14:57:32;19.00;52.60
35497;DHT22;21609;49.298;6.844;2023-04-25T14:59:57;19.00;52.70
35497;DHT22;21609;49.298;6.844;2023-04-25T15:02:26;19.10;52.70
35497;DHT22;21609;49.298;6.844;2023-04-25T15:04:53;19.10;52.70
35497;DHT22;21609;49.298;6.844;2023-04-25T15:07:19;19.20;52.80
35497;DHT22;21609;49.298;6.844;2023-04-25T15:09:45;19.40;52.80
35497;DHT22;21609;49.298;6.844;2023-04-25T15:12:11;19.40;52.70
35497;DHT22;21609;49.298;6.844;2023-04-25T15:14:37;19.50;52.60
35497;DHT22;21609;49.298;6.844;2023-04-25T15:17:02;19.60;52.60
35497;DHT22;21609;49.298;6.844;2023-04-25T15:19:28;19.70;52.50
35497;DHT22;21609;49.298;6.844;2023-04-25T15:21:53;19.70;52.40
35497;DHT22;21609;49.298;6.844;2023-04-25T15:24:19;19.70;52.30
35497;DHT22;21609;49.298;6.844;2023-04-25T15:26:45;19.60;52.20
35497;DHT22;21609;49.298;6.844;2023-04-25T15:29:11;19.60;52.30
35497;DHT22;21609;49.298;6.844;2023-04-25T15:31:37;19.50;52.20
35497;DHT22;21609;49.298;6.844;2023-04-25T15:34:03;19.50;52.10
35497;DHT22;21609;49.298;6.844;2023-04-25T15:36:28;19.50;52.00